Time;durP1;ratioP1;P1;durP2;ratioP2;P2;SDS_P1;SDS_P2;PMS_P1;PMS_P2;Temp;Humidity;BMP_temperature;BMP_pressure;BME280_temperature;BME280_humidity;BME280_pressure;Samples;Min_cycle;Max_cycle;Signal;HPM_P1;HPM_P2
2022/05/09 00:02:08;;;;;;;11.40;5.10;;;;;;;13.26;73.44;101385.97;4939015;29;20023;-83
2022/05/09 00:04:35;;;;;;;10.65;4.97;;;;;;;13.19;73.25;101377.50;4938933;29;20044;-81
2022/05/09 00:07:00;;;;;;;14.43;6.22;;;;;;;13.15;73.27;101375.19;4937476;29;20474;-82
2022/05/09 00:09:26;;;;;;;16.67;5.68;;;;;;;13.18;73.03;101383.03;4952123;29;20391;-82
2022/05/09 00:11:51;;;;;;;10.25;5.43;;;;;;;13.16;73.18;101388.56;4937192;29;20533;-81
2022/05/09 00:14:17;;;;;;;18.08;6.38;;;;;;;13.10;73.17;101383.66;4937886;29;20028;-82
2022/05/09 00:16:42;;;;;;;21.77;6.45;;;;;;;13.09;73.18;101388.19;4937084;29;20030;-82
2022/05/09 00:19:11;;;;;;;12.75;5.90;;;;;;;13.05;73.48;101391.22;4937623;29;20086;-83
2022/05/09 00:21:41;;;;;;;21.10;6.25;;;;;;;13.03;73.88;101394.03;4937890;29;20027;-82
2022/05/09 00:24:13;;;;;;;11.05;5.57;;;;;;;13.01;73.93;101396.00;4937411;29;20038;-82
2022/05/09 00:26:39;;;;;;;8.35;5.28;;;;;;;12.93;73.53;101379.56;4937894;29;20028;-82
2022/05/09 00:29:04;;;;;;;12.93;5.78;;;;;;;12.99;73.66;101392.59;4937358;29;20457;-82
2022/05/09 00:31:30;;;;;;;11.98;4.88;;;;;;;12.96;73.47;101387.44;4937365;29;20031;-82
2022/05/09 00:33:56;;;;;;;11.30;5.18;;;;;;;12.94;73.42;101389.38;4937487;29;20031;-82
2022/05/09 00:36:22;;;;;;;12.65;5.95;;;;;;;12.93;73.93;101384.97;4937442;29;20087;-82
2022/05/09 00:38:52;;;;;;;14.98;5.25;;;;;;;12.93;74.14;101387.66;4937411;29;20063;-82
2022/05/09 00:41:34;;;;;;;14.30;5.93;;;;;;;12.93;74.26;101390.38;4936840;29;20031;-82
2022/05/09 00:44:05;;;;;;;14.95;6.22;;;;;;;12.98;73.63;101390.00;4937295;29;20063;-82
2022/05/09 00:46:31;;;;;;;14.60;5.43;;;;;;;12.93;73.48;101387.66;4937767;29;20047;-82
2022/05/09 00:49:06;;;;;;;11.48;5.53;;;;;;;12.96;73.39;101392.81;4937123;29;20471;-82
2022/05/09 00:51:33;;;;;;;18.70;5.60;;;;;;;12.87;73.26;101388.13;4937325;29;20034;-82
2022/05/09 00:54:02;;;;;;;16.33;5.72;;;;;;;12.93;74.01;101395.78;4937652;29;20043;-82
2022/05/09 00:56:35;;;;;;;15.88;5.97;;;;;;;12.92;73.39;101377.84;4940190;29;20111;-82
2022/05/09 00:59:06;;;;;;;17.33;5.78;;;;;;;12.88;73.27;101375.50;4953756;29;20493;-83
2022/05/09 01:01:32;;;;;;;9.73;5.38;;;;;;;12.88;73.36;101384.44;4936835;29;20059;-82
2022/05/09 01:04:21;;;;;;;15.52;6.13;;;;;;;12.89;73.49;101380.78;4938816;29;20039;-82
2022/05/09 01:06:48;;;;;;;19.02;6.07;;;;;;;12.88;73.18;101380.88;4936755;29;20372;-83
2022/05/09 01:09:14;;;;;;;14.45;5.60;;;;;;;12.86;73.59;101372.94;4936491;29;20036;-83
2022/05/09 01:11:43;;;;;;;14.48;5.50;;;;;;;12.88;73.13;101376.34;4936481;29;20054;-82
2022/05/09 01:14:16;;;;;;;17.40;5.28;;;;;;;12.86;73.11;101372.06;4936776;29;20032;-81
2022/05/09 01:16:43;;;;;;;13.55;4.78;;;;;;;12.86;73.73;101374.75;4936919;29;20024;-83
2022/05/09 01:19:29;;;;;;;21.35;6.78;;;;;;;12.87;73.25;101368.38;4938554;29;20038;-82
2022/05/09 01:21:56;;;;;;;14.50;5.30;;;;;;;12.83;73.54;101359.66;4936953;29;20027;-81
2022/05/09 01:24:24;;;;;;;11.77;5.05;;;;;;;12.87;73.66;101365.69;4937428;29;20028;-81
2022/05/09 01:26:51;;;;;;;13.75;5.57;;;;;;;12.85;73.05;101373.91;4937300;29;20031;-81
2022/05/09 01:29:24;;;;;;;17.63;5.18;;;;;;;12.87;73.25;101371.91;4936753;29;20410;-81
2022/05/09 01:31:52;;;;;;;15.35;5.78;;;;;;;12.83;73.12;101378.56;4941543;29;20129;-81
2022/05/09 01:34:17;;;;;;;16.52;5.70;;;;;;;12.79;73.30;101368.97;4956055;28;20032;-81
2022/05/09 01:36:46;;;;;;;12.73;4.63;;;;;;;12.79;72.94;101379.78;4937988;29;20102;-82
2022/05/09 01:39:12;;;;;;;13.57;5.00;;;;;;;12.74;72.96;101364.94;4936555;29;20032;-81
2022/05/09 01:41:46;;;;;;;17.20;6.75;;;;;;;12.77;72.89;101370.94;4936242;29;20103;-81
2022/05/09 01:44:13;;;;;;;12.23;5.40;;;;;;;12.75;73.07;101372.88;4937037;29;20034;-82
2022/05/09 01:49:29;;;;;;;13.52;5.07;;;;;;;12.65;72.89;101371.91;4940805;29;20039;-82
2022/05/09 01:51:55;;;;;;;18.35;5.03;;;;;;;12.64;72.72;101372.88;4949822;29;20036;-81
2022/05/09 01:54:21;;;;;;;28.08;6.28;;;;;;;12.64;72.91;101370.19;4949142;29;20028;-81
2022/05/09 01:56:46;;;;;;;16.60;5.50;;;;;;;12.69;72.70;101370.69;4944258;29;20070;-82
2022/05/09 01:59:13;;;;;;;14.60;5.82;;;;;;;12.61;72.62;101366.84;4942075;29;20026;-82
2022/05/09 02:01:52;;;;;;;13.60;4.65;;;;;;;12.68;72.37;101371.69;4944327;29;20122;-82
2022/05/09 02:04:17;;;;;;;15.57;5.55;;;;;;;12.63;72.41;101368.44;4941518;29;20398;-83
2022/05/09 02:06:43;;;;;;;17.05;5.32;;;;;;;12.55;72.62;101370.91;4954588;29;20028;-82
2022/05/09 02:09:10;;;;;;;15.70;6.07;;;;;;;12.57;72.70;101368.09;4939340;29;20521;-82
2022/05/09 02:11:35;;;;;;;15.88;5.60;;;;;;;12.50;72.56;101362.31;4939283;29;20031;-81
2022/05/09 02:14:02;;;;;;;18.30;5.53;;;;;;;12.52;72.20;101365.75;4939158;29;20505;-82
2022/05/09 02:16:27;;;;;;;17.80;5.15;;;;;;;12.41;72.07;101358.50;4939308;29;20083;-82
2022/05/09 02:18:53;;;;;;;18.10;5.82;;;;;;;12.46;72.13;101364.38;4939318;29;20051;-82
2022/05/09 02:21:20;;;;;;;10.90;4.60;;;;;;;12.43;71.99;101372.72;4939008;29;20496;-82
2022/05/09 02:23:47;;;;;;;16.00;5.22;;;;;;;12.28;72.40;101352.31;4938798;29;20462;-81
2022/05/09 02:26:13;;;;;;;11.57;5.10;;;;;;;12.33;72.17;101368.13;4939162;29;20060;-82
2022/05/09 02:28:39;;;;;;;18.98;5.90;;;;;;;12.33;72.03;101363.59;4939638;29;20027;-82
2022/05/09 02:31:05;;;;;;;16.13;5.57;;;;;;;12.24;72.04;101358.91;4939015;29;20505;-81
2022/05/09 02:33:30;;;;;;;17.05;5.30;;;;;;;12.23;72.41;101353.66;4939275;29;20032;-84
2022/05/09 02:35:56;;;;;;;11.82;4.72;;;;;;;12.22;72.78;101362.72;4953512;29;20411;-82
2022/05/09 02:38:24;;;;;;;9.43;4.78;;;;;;;12.16;73.12;101364.06;4938674;29;20479;-83
2022/05/09 02:40:50;;;;;;;12.52;4.97;;;;;;;12.13;73.11;101363.41;4939116;29;20430;-83
2022/05/09 02:43:16;;;;;;;16.27;4.22;;;;;;;12.11;73.16;101355.44;4938820;29;20055;-83
2022/05/09 02:45:41;;;;;;;15.55;5.00;;;;;;;12.06;73.01;101354.06;4954813;29;20023;-82
2022/05/09 02:48:08;;;;;;;15.13;4.93;;;;;;;12.13;72.83;101366.13;4939190;29;20484;-83
2022/05/09 02:50:33;;;;;;;11.85;5.50;;;;;;;12.09;72.81;101361.91;4938536;29;20034;-83
2022/05/09 02:52:59;;;;;;;17.63;5.47;;;;;;;12.11;73.19;101365.38;4939292;29;20328;-82
2022/05/09 02:55:24;;;;;;;16.65;5.43;;;;;;;12.02;73.01;101355.31;4938920;29;20034;-83
2022/05/09 02:57:50;;;;;;;18.52;5.68;;;;;;;12.11;72.98;101370.78;4938829;29;20059;-84
2022/05/09 03:00:21;;;;;;;25.52;7.05;;;;;;;12.10;72.89;101371.75;4940048;29;20023;-83
2022/05/09 03:05:33;;;;;;;28.10;10.05;;;;;;;11.89;73.09;101356.22;4940048;29;20450;-82
2022/05/09 03:07:59;;;;;;;30.48;10.95;;;;;;;11.89;72.94;101363.44;4946144;29;20076;-82
2022/05/09 03:10:28;;;;;;;34.70;12.93;;;;;;;11.88;73.51;101370.66;4956804;29;20032;-84
2022/05/09 03:12:56;;;;;;;31.90;13.48;;;;;;;11.89;73.28;101377.78;4939691;29;20148;-84
2022/05/09 03:15:21;;;;;;;32.92;14.10;;;;;;;11.91;73.46;101391.13;4938632;29;20031;-83
2022/05/09 03:17:47;;;;;;;27.30;13.55;;;;;;;11.92;73.18;101377.56;4938109;29;20023;-82
2022/05/09 03:20:12;;;;;;;32.67;15.35;;;;;;;11.84;73.59;101382.66;4938338;29;20046;-83
2022/05/09 03:22:38;;;;;;;40.00;17.02;;;;;;;11.93;73.32;101387.34;4938137;29;20020;-83
2022/05/09 03:25:04;;;;;;;40.80;17.58;;;;;;;11.93;73.34;101390.03;4937574;29;20500;-82
2022/05/09 03:27:29;;;;;;;44.83;16.25;;;;;;;11.97;72.68;101390.69;4937710;29;20083;-82
2022/05/09 03:29:55;;;;;;;39.72;16.58;;;;;;;11.93;73.14;101386.47;4937964;29;20107;-82
2022/05/09 03:32:20;;;;;;;35.83;15.40;;;;;;;11.90;73.49;101384.00;4937522;29;20501;-83
2022/05/09 03:34:46;;;;;;;43.92;16.80;;;;;;;11.87;73.59;101390.50;4938112;29;20505;-81
2022/05/09 03:37:12;;;;;;;34.88;16.27;;;;;;;11.90;73.16;101390.28;4936953;29;20027;-80
2022/05/09 03:39:37;;;;;;;36.70;17.27;;;;;;;11.90;73.25;101398.34;4937121;29;20032;-81
2022/05/09 03:42:04;;;;;;;41.25;16.65;;;;;;;11.89;72.83;101398.50;4937434;29;20023;-81
2022/05/09 03:44:29;;;;;;;29.40;15.60;;;;;;;11.90;72.80;101400.19;4937103;29;20028;-82
2022/05/09 03:46:54;;;;;;;38.45;16.50;;;;;;;11.89;73.27;101393.09;4937582;29;20049;-81
2022/05/09 03:49:20;;;;;;;46.10;16.90;;;;;;;11.95;73.16;101403.44;4937077;29;20059;-79
2022/05/09 03:51:45;;;;;;;56.78;18.45;;;;;;;11.94;72.99;101394.47;4936059;29;20043;-78
2022/05/09 03:54:11;;;;;;;67.07;20.70;;;;;;;11.97;73.01;101391.53;4936452;29;20028;-78
2022/05/09 03:56:37;;;;;;;49.08;19.00;;;;;;;12.02;73.03;101401.13;4936524;29;20038;-79
2022/05/09 03:59:02;;;;;;;61.00;17.10;;;;;;;11.95;73.11;101401.59;4937550;29;20107;-80
2022/05/09 04:01:27;;;;;;;39.72;13.60;;;;;;;11.95;73.70;101406.13;4937425;29;20374;-90
2022/05/09 04:03:53;;;;;;;35.97;13.75;;;;;;;11.96;74.01;101400.59;4938167;29;20020;-81
2022/05/09 04:06:18;;;;;;;40.47;9.60;;;;;;;11.97;73.63;101409.56;4945888;28;20027;-77
2022/05/09 04:08:44;;;;;;;22.00;9.50;;;;;;;11.77;74.11;101399.41;4955530;28;20019;-78
2022/05/09 04:11:09;;;;;;;27.02;10.43;;;;;;;11.80;74.17;101405.41;4955123;28;20031;-78
2022/05/09 04:13:35;;;;;;;30.45;12.85;;;;;;;11.84;73.71;101408.72;4955172;28;20027;-77
2022/05/09 04:18:49;;;;;;;31.05;14.82;;;;;;;11.78;73.88;101407.34;4944899;28;20045;-77
2022/05/09 04:21:14;;;;;;;53.40;14.50;;;;;;;11.65;74.48;101414.59;4954028;28;20027;-77
2022/05/09 04:23:40;;;;;;;37.25;16.00;;;;;;;11.64;74.97;101423.66;4955222;28;20015;-81
2022/05/09 04:26:06;;;;;;;35.65;15.23;;;;;;;11.77;74.69;101419.09;4955124;28;20023;-82
2022/05/09 04:28:31;;;;;;;48.97;15.60;;;;;;;11.90;74.61;101419.94;4954336;29;20027;-79
2022/05/09 04:30:58;;;;;;;35.20;14.10;;;;;;;11.98;74.43;101412.16;4954821;28;20027;-79
2022/05/09 04:33:24;;;;;;;41.22;12.45;;;;;;;12.04;74.17;101412.66;4954791;28;20497;-76
2022/05/09 04:35:49;;;;;;;24.52;11.35;;;;;;;12.13;73.42;101418.22;4954767;28;20086;-77
2022/05/09 04:38:21;;;;;;;29.98;12.75;;;;;;;12.23;73.16;101415.69;4954679;28;20478;-77
2022/05/09 04:40:51;;;;;;;37.97;14.50;;;;;;;12.28;73.28;101416.19;4954478;28;20497;-79
2022/05/09 04:43:24;;;;;;;29.73;13.07;;;;;;;12.33;73.38;101419.38;4955381;29;20080;-83
2022/05/09 04:45:51;;;;;;;25.48;11.13;;;;;;;12.33;72.78;101416.69;4965831;28;20041;-83
2022/05/09 04:48:19;;;;;;;25.77;10.65;;;;;;;12.44;73.40;101417.63;4967832;28;20027;-83
2022/05/09 04:50:44;;;;;;;93.97;15.50;;;;;;;12.59;72.51;101415.56;4955492;28;20058;-83
2022/05/09 04:53:10;;;;;;;34.28;12.45;;;;;;;12.69;72.51;101427.34;4954372;28;20474;-83
2022/05/09 04:55:36;;;;;;;25.38;10.93;;;;;;;12.73;72.25;101426.16;4954373;28;20082;-83
2022/05/09 04:58:03;;;;;;;37.22;11.50;;;;;;;12.80;71.82;101426.53;4954200;28;20062;-83
2022/05/09 05:00:29;;;;;;;25.75;10.25;;;;;;;12.85;71.85;101425.19;4954734;28;20052;-83
2022/05/09 05:02:56;;;;;;;36.25;9.90;;;;;;;12.97;71.48;101436.88;4954902;28;20110;-82
2022/05/09 05:05:23;;;;;;;22.15;10.02;;;;;;;13.04;71.65;101432.72;4974115;28;20038;-82
2022/05/09 05:07:49;;;;;;;18.77;9.73;;;;;;;13.12;71.25;101429.44;4973936;28;20018;-82
2022/05/09 05:10:16;;;;;;;29.95;11.10;;;;;;;13.21;71.07;101429.56;4974933;28;20031;-82
2022/05/09 05:12:41;;;;;;;23.52;10.85;;;;;;;13.33;71.31;101427.75;4974021;28;20029;-82
2022/05/09 05:15:07;;;;;;;25.92;12.02;;;;;;;13.43;71.29;101434.09;4973816;28;20027;-83
2022/05/09 05:17:33;;;;;;;33.03;11.45;;;;;;;13.52;71.31;101433.34;4973680;28;20027;-82
2022/05/09 05:20:00;;;;;;;32.42;10.95;;;;;;;13.61;71.60;101435.31;4973290;28;20409;-84
2022/05/09 05:22:26;;;;;;;31.08;10.32;;;;;;;13.76;70.99;101433.22;4973517;28;20019;-84
2022/05/09 05:24:54;;;;;;;59.28;12.90;;;;;;;13.85;71.15;101436.00;4973665;28;20121;-83
2022/05/09 05:27:23;;;;;;;24.60;10.70;;;;;;;13.95;70.90;101436.13;4973457;28;20027;-82
2022/05/09 05:29:49;;;;;;;48.97;12.38;;;;;;;14.02;71.10;101435.50;4975226;28;20424;-77
2022/05/09 05:32:19;;;;;;;28.80;11.43;;;;;;;14.15;70.86;101441.63;4972412;28;20037;-78
2022/05/09 05:34:47;;;;;;;33.35;11.25;;;;;;;14.20;70.98;101443.91;4972169;28;20551;-78
2022/05/09 05:37:12;;;;;;;30.65;11.05;;;;;;;14.32;70.54;101439.31;4972397;28;20089;-78
2022/05/09 05:39:40;;;;;;;42.70;11.55;;;;;;;14.36;70.65;101440.81;4987702;28;20027;-80
2022/05/09 05:42:06;;;;;;;33.47;10.63;;;;;;;14.49;70.53;101449.63;4972529;28;20023;-78
2022/05/09 05:44:32;;;;;;;29.00;9.77;;;;;;;14.54;70.22;101447.38;4987440;28;20085;-80
2022/05/09 05:46:57;;;;;;;24.08;11.25;;;;;;;14.51;70.12;101444.94;4972589;28;20031;-78
2022/05/09 05:49:24;;;;;;;35.45;12.77;;;;;;;14.68;69.92;101449.75;4972543;28;20455;-80
2022/05/09 05:51:49;;;;;;;30.77;11.48;;;;;;;14.71;69.34;101446.78;4972003;28;20042;-78
2022/05/09 05:54:14;;;;;;;26.60;12.85;;;;;;;14.86;68.73;101450.88;4972038;28;20037;-78
2022/05/09 05:56:40;;;;;;;37.30;13.23;;;;;;;14.93;68.19;101457.50;4972463;28;20054;-78
2022/05/09 05:59:05;;;;;;;32.53;10.82;;;;;;;14.84;68.50;101458.31;4972662;28;20045;-79
2022/05/09 06:01:33;;;;;;;31.58;12.93;;;;;;;15.01;68.28;101465.84;4972511;28;20042;-77
2022/05/09 06:04:00;;;;;;;50.47;14.00;;;;;;;15.14;68.25;101471.91;4972694;28;20027;-78
2022/05/09 06:06:25;;;;;;;31.05;12.15;;;;;;;15.26;67.63;101465.41;4973007;28;20038;-78
2022/05/09 06:08:51;;;;;;;32.90;13.77;;;;;;;15.09;67.14;101460.63;4972489;28;20027;-78
2022/05/09 06:11:16;;;;;;;28.95;9.27;;;;;;;15.21;66.55;101456.81;4972477;28;20014;-78
2022/05/09 06:13:42;;;;;;;35.20;5.15;;;;;;;15.06;65.05;101458.16;4972343;28;20508;-79
2022/05/09 06:16:07;;;;;;;21.40;5.10;;;;;;;15.19;65.09;101464.25;4972272;28;20093;-78
2022/05/09 06:18:33;;;;;;;16.70;5.13;;;;;;;15.25;65.70;101471.84;4972384;28;20031;-79
2022/05/09 06:20:58;;;;;;;18.58;5.00;;;;;;;15.27;64.13;101477.97;4972526;28;20034;-79
2022/05/09 06:23:25;;;;;;;16.48;4.63;;;;;;;15.27;63.84;101467.13;4973558;28;20030;-79
2022/05/09 06:25:51;;;;;;;12.52;4.57;;;;;;;15.32;64.18;101474.00;4989228;28;20022;-79
2022/05/09 06:28:21;;;;;;;20.83;5.20;;;;;;;15.16;64.19;101469.94;4975309;28;20085;-78
2022/05/09 06:30:46;;;;;;;20.25;5.53;;;;;;;15.31;63.64;101481.28;4972298;28;20424;-78
2022/05/09 06:33:12;;;;;;;17.17;4.10;;;;;;;15.41;62.77;101484.03;4972062;28;20478;-78
2022/05/09 06:35:44;;;;;;;10.68;3.08;;;;;;;15.47;62.12;101484.38;4972145;28;20031;-80
2022/05/09 06:38:14;;;;;;;10.45;3.80;;;;;;;15.50;60.18;101477.84;4972121;28;20023;-79
2022/05/09 06:40:40;;;;;;;19.33;5.43;;;;;;;15.63;60.85;101476.59;4972013;28;20078;-79
2022/05/09 06:43:06;;;;;;;23.42;5.57;;;;;;;15.51;61.21;101474.13;4971887;28;20094;-79
2022/05/09 06:45:33;;;;;;;18.02;3.90;;;;;;;15.52;60.69;101475.84;4973925;28;20023;-79
2022/05/09 06:47:59;;;;;;;13.90;4.50;;;;;;;15.58;59.86;101480.72;4990491;28;20046;-79
2022/05/09 06:50:28;;;;;;;22.17;9.68;;;;;;;15.48;59.65;101474.38;4975497;28;20064;-79
2022/05/09 06:52:53;;;;;;;16.42;5.03;;;;;;;15.60;60.08;101478.72;4975202;28;20030;-77
2022/05/09 06:55:19;;;;;;;21.63;5.57;;;;;;;15.72;60.56;101483.06;4975330;28;20042;-79
2022/05/09 06:57:45;;;;;;;16.20;4.78;;;;;;;15.85;59.80;101483.69;4989940;28;20606;-79
2022/05/09 07:00:23;;;;;;;12.98;4.90;;;;;;;15.86;58.39;101485.41;4975229;28;20018;-79
2022/05/09 07:02:48;;;;;;;14.88;3.92;;;;;;;15.83;57.74;101487.53;4975785;28;20026;-79
2022/05/09 07:05:16;;;;;;;11.23;3.30;;;;;;;15.84;56.26;101486.53;4975368;28;20030;-78
2022/05/09 07:07:45;;;;;;;17.13;4.50;;;;;;;15.70;56.49;101485.06;4975507;28;20405;-78
2022/05/09 07:10:13;;;;;;;14.60;4.85;;;;;;;15.80;57.21;101488.66;4973930;28;20033;-80
2022/05/09 07:12:52;;;;;;;13.07;3.80;;;;;;;15.75;54.61;101486.34;4974911;28;20539;-79
2022/05/09 07:15:25;;;;;;;10.10;4.07;;;;;;;15.82;54.67;101494.81;4975080;28;20033;-80
2022/05/09 07:17:53;;;;;;;12.15;4.38;;;;;;;15.79;55.23;101497.78;4974898;28;20034;-80
2022/05/09 07:20:20;;;;;;;18.70;3.53;;;;;;;15.88;55.19;101494.25;4975292;28;20042;-79
2022/05/09 07:22:47;;;;;;;7.90;3.30;;;;;;;16.06;55.42;101503.44;4975028;28;20022;-78
2022/05/09 07:25:15;;;;;;;14.50;3.90;;;;;;;16.14;54.96;101509.06;4974851;28;20033;-79
2022/05/09 07:27:42;;;;;;;15.85;4.10;;;;;;;16.29;53.64;101501.38;4974801;28;20057;-78
2022/05/09 07:30:13;;;;;;;14.23;3.67;;;;;;;16.30;52.13;101500.34;4974543;28;20069;-78
2022/05/09 07:32:39;;;;;;;17.15;4.20;;;;;;;16.39;51.16;101514.97;4974380;28;20038;-78
2022/05/09 07:35:07;;;;;;;8.73;2.83;;;;;;;16.42;53.03;101498.38;4974725;28;20066;-79
2022/05/09 07:37:33;;;;;;;10.63;2.63;;;;;;;16.38;52.19;101496.94;4974667;28;20026;-78
2022/05/09 07:39:58;;;;;;;10.18;2.88;;;;;;;16.32;51.82;101507.38;4974643;28;20031;-78
2022/05/09 07:42:24;;;;;;;13.23;3.17;;;;;;;16.42;51.00;101509.25;4974821;28;20027;-80
2022/05/09 07:44:52;;;;;;;12.65;3.95;;;;;;;16.51;50.71;101508.41;4974706;28;20042;-80
2022/05/09 07:47:18;;;;;;;25.00;4.90;;;;;;;16.60;52.40;101508.44;4974601;28;20034;-79
2022/05/09 07:49:45;;;;;;;26.55;4.38;;;;;;;16.53;53.31;101511.81;4974729;28;20194;-80
2022/05/09 07:52:11;;;;;;;16.73;3.53;;;;;;;16.50;51.96;101512.09;4974506;28;20027;-81
2022/05/09 07:54:37;;;;;;;11.00;3.35;;;;;;;16.48;53.08;101517.66;4982610;28;20026;-79
2022/05/09 07:57:03;;;;;;;15.55;3.75;;;;;;;16.48;56.59;101517.66;4989976;28;20061;-81
2022/05/09 07:59:29;;;;;;;17.70;3.95;;;;;;;16.53;54.83;101506.41;4988429;28;20354;-78
2022/05/09 08:01:55;;;;;;;16.08;3.78;;;;;;;16.58;54.08;101505.00;4980595;28;20041;-80
2022/05/09 08:04:21;;;;;;;11.38;3.35;;;;;;;16.80;54.00;101515.59;4985203;28;20030;-79
2022/05/09 08:06:47;;;;;;;8.40;3.40;;;;;;;16.69;51.65;101513.03;4974266;28;20061;-79
2022/05/09 08:09:13;;;;;;;11.18;2.97;;;;;;;16.58;51.99;101510.44;4974351;28;20065;-79
2022/05/09 08:11:39;;;;;;;11.02;3.08;;;;;;;16.59;51.56;101514.00;4974296;28;20067;-79
2022/05/09 08:14:06;;;;;;;8.15;2.53;;;;;;;16.71;50.33;101510.16;4974305;28;20334;-80
2022/05/09 08:16:33;;;;;;;18.63;3.10;;;;;;;16.80;53.04;101514.72;4973801;28;20085;-78
2022/05/09 08:18:59;;;;;;;6.07;2.88;;;;;;;16.75;53.42;101508.88;4973612;28;20038;-78
2022/05/09 08:21:26;;;;;;;28.52;5.80;;;;;;;16.75;51.98;101511.59;4973755;28;20042;-79
2022/05/09 08:23:51;;;;;;;6.82;2.47;;;;;;;16.97;51.87;101515.88;4973580;28;20072;-79
2022/05/09 08:26:21;;;;;;;7.55;3.25;;;;;;;16.93;51.40;101511.72;4973478;28;20110;-79
2022/05/09 08:28:47;;;;;;;15.55;3.63;;;;;;;16.95;49.56;101499.69;4973477;28;20128;-79
2022/05/09 08:31:18;;;;;;;11.10;3.10;;;;;;;17.04;49.19;101514.28;4973431;28;20054;-79
2022/05/09 08:33:44;;;;;;;17.98;2.80;;;;;;;17.02;50.99;101506.28;4973594;28;20023;-80
2022/05/09 08:36:45;;;;;;;10.90;3.70;;;;;;;17.13;52.14;101516.97;4973563;28;20033;-79
2022/05/09 08:38:58;;;;;;;7.18;3.22;;;;;;;17.24;50.58;101513.25;4973711;28;20026;-78
2022/05/09 08:41:24;;;;;;;11.02;2.65;;;;;;;17.37;49.21;101509.19;4973787;28;20038;-77
2022/05/09 08:44:02;;;;;;;9.18;3.08;;;;;;;17.46;49.77;101509.34;4973242;28;20186;-80
2022/05/09 08:46:39;;;;;;;10.25;2.70;;;;;;;17.60;50.38;101515.19;4973263;28;20026;-78
2022/05/09 08:49:20;;;;;;;11.85;3.00;;;;;;;17.66;49.26;101519.19;4973159;28;20583;-77
2022/05/09 08:52:12;;;;;;;9.07;3.35;;;;;;;17.76;49.48;101520.00;4973187;28;20058;-77
2022/05/09 08:54:38;;;;;;;20.38;3.33;;;;;;;17.70;48.78;101515.16;4965730;28;20054;-78
2022/05/09 08:57:11;;;;;;;9.07;2.40;;;;;;;17.61;47.13;101510.63;4973066;28;20413;-77
2022/05/09 08:59:42;;;;;;;21.52;3.97;;;;;;;17.68;48.32;101501.69;4972977;28;20142;-77
2022/05/09 09:02:16;;;;;;;14.98;2.03;;;;;;;17.69;47.46;101518.88;4972804;28;20035;-78
2022/05/09 09:04:49;;;;;;;7.97;2.40;;;;;;;17.72;46.36;101515.84;4973059;28;20469;-79
2022/05/09 09:07:44;;;;;;;12.07;2.85;;;;;;;17.81;48.04;101518.53;4974341;28;20169;-80
2022/05/09 09:10:25;;;;;;;13.27;2.20;;;;;;;17.64;48.17;101515.75;4975809;28;20038;-79
2022/05/09 09:13:29;;;;;;;34.25;2.67;;;;;;;17.50;45.90;101516.19;4976630;28;20505;-78
2022/05/09 09:16:12;;;;;;;9.52;2.20;;;;;;;17.36;47.96;101515.66;4972829;28;20062;-78
2022/05/09 09:18:55;;;;;;;12.65;2.08;;;;;;;17.30;47.26;101518.09;4975937;28;20026;-78
2022/05/09 09:21:39;;;;;;;6.70;2.13;;;;;;;17.45;48.15;101516.63;4973786;28;20552;-79
2022/05/09 09:24:36;;;;;;;5.82;2.63;;;;;;;17.47;45.95;101508.31;4975080;28;20488;-79
2022/05/09 09:27:18;;;;;;;13.63;2.58;;;;;;;17.69;48.45;101516.16;4972805;28;20492;-79
2022/05/09 09:30:01;;;;;;;20.50;2.70;;;;;;;17.79;46.29;101516.97;4972864;28;20080;-78
2022/05/09 09:32:28;;;;;;;5.75;2.50;;;;;;;17.82;48.32;101508.53;4981803;28;20166;-79
2022/05/09 09:35:03;;;;;;;5.15;2.42;;;;;;;17.74;49.38;101522.00;4975608;28;20080;-79
2022/05/09 09:37:56;;;;;;;14.98;3.03;;;;;;;17.80;50.73;101515.97;4972722;28;20400;-79
2022/05/09 09:40:21;;;;;;;8.95;2.25;;;;;;;17.71;47.67;101515.00;4974678;28;20031;-79
2022/05/09 09:42:54;;;;;;;9.00;2.15;;;;;;;17.58;46.92;101510.91;4989380;28;20033;-79
2022/05/09 09:45:49;;;;;;;5.05;2.28;;;;;;;17.41;47.54;101516.06;4972780;28;20026;-79
2022/05/09 09:48:22;;;;;;;5.25;2.33;;;;;;;17.41;48.80;101501.59;4971528;28;20035;-78
2022/05/09 09:50:59;;;;;;;11.00;2.92;;;;;;;17.46;49.94;101501.19;4972836;28;20031;-79
2022/05/09 09:53:38;;;;;;;9.32;2.85;;;;;;;17.41;50.12;101505.19;4972328;28;20097;-80
2022/05/09 09:56:07;;;;;;;23.27;3.17;;;;;;;17.56;50.69;101507.47;4972670;28;20114;-81
2022/05/09 09:58:34;;;;;;;9.02;2.42;;;;;;;17.63;50.55;101503.16;4987264;28;20059;-80
2022/05/09 10:01:07;;;;;;;11.00;2.95;;;;;;;17.65;51.25;101498.41;4971890;28;20461;-79
2022/05/09 10:03:38;;;;;;;12.18;2.58;;;;;;;17.79;51.37;101500.66;4972179;28;20027;-80
2022/05/09 10:06:14;;;;;;;8.00;2.65;;;;;;;17.94;52.29;101501.88;4972383;28;20030;-80
2022/05/09 10:08:40;;;;;;;12.77;2.75;;;;;;;18.20;49.97;101491.09;4972587;28;20106;-81
2022/05/09 10:11:23;;;;;;;7.20;2.65;;;;;;;18.26;49.77;101499.53;4976656;28;20445;-79
2022/05/09 10:13:56;;;;;;;9.75;2.72;;;;;;;18.35;48.51;101498.59;4974154;28;20030;-78
2022/05/09 10:16:30;;;;;;;10.82;2.58;;;;;;;18.28;48.30;101489.34;4973017;28;20593;-78
2022/05/09 10:18:57;;;;;;;7.38;2.80;;;;;;;18.32;51.16;101495.31;4972277;28;20473;-78
2022/05/09 10:24:47;;;;;;;13.15;2.42;;;;;;;18.21;51.66;101498.28;4976246;28;20085;-80
2022/05/09 10:27:22;;;;;;;9.40;2.35;;;;;;;18.39;47.25;101502.75;4975936;28;20100;-78
2022/05/09 10:29:53;;;;;;;15.68;3.83;;;;;;;18.31;45.72;101505.38;4985625;28;20066;-79
2022/05/09 10:32:52;;;;;;;18.35;3.53;;;;;;;18.34;48.05;101498.78;4984645;28;20062;-78
2022/05/09 10:35:23;;;;;;;10.23;2.38;;;;;;;18.67;47.85;101505.44;4976734;28;20093;-77
2022/05/09 10:38:10;;;;;;;18.65;3.40;;;;;;;18.71;45.59;101510.44;4976613;28;20085;-78
2022/05/09 10:40:52;;;;;;;13.18;2.42;;;;;;;18.63;47.94;101501.28;4976540;28;20031;-79
2022/05/09 10:43:38;;;;;;;5.45;1.90;;;;;;;18.74;48.00;101506.53;4976203;28;20415;-78
2022/05/09 10:46:10;;;;;;;12.48;2.65;;;;;;;18.78;48.33;101508.78;4976164;28;20046;-78
2022/05/09 10:48:43;;;;;;;19.85;4.30;;;;;;;18.82;48.52;101506.59;4976246;28;20093;-78
2022/05/09 10:51:12;;;;;;;14.80;2.70;;;;;;;19.00;47.73;101504.72;4990879;28;20069;-78
2022/05/09 10:53:53;;;;;;;21.63;3.80;;;;;;;19.01;47.64;101503.69;4975666;28;20037;-78
2022/05/09 10:56:41;;;;;;;27.98;5.20;;;;;;;19.01;46.06;101503.69;4979853;28;20037;-79
2022/05/09 10:59:17;;;;;;;12.52;2.63;;;;;;;18.93;44.56;101509.06;4979235;28;20433;-79
2022/05/09 11:01:51;;;;;;;6.18;2.17;;;;;;;19.13;45.46;101507.03;4975397;28;20020;-78
2022/05/09 11:04:18;;;;;;;13.23;2.85;;;;;;;19.09;45.58;101502.91;4975807;28;20102;-79
2022/05/09 11:07:04;;;;;;;8.57;2.58;;;;;;;18.81;46.37;101502.16;4976243;28;20110;-79
2022/05/09 11:09:51;;;;;;;17.95;2.92;;;;;;;18.81;47.69;101513.03;4975688;28;20416;-78
2022/05/09 11:12:43;;;;;;;6.45;2.50;;;;;;;18.82;49.65;101514.78;4976203;28;20166;-79
2022/05/09 11:15:38;;;;;;;36.72;5.75;;;;;;;18.88;50.43;101504.09;4976242;28;20054;-80
2022/05/09 11:18:25;;;;;;;10.63;2.50;;;;;;;18.95;48.80;101505.19;4972845;28;20417;-78
2022/05/09 11:21:26;;;;;;;22.33;3.38;;;;;;;18.78;50.55;101502.47;4991352;28;20047;-77
2022/05/09 11:24:13;;;;;;;6.13;3.05;;;;;;;18.84;51.06;101508.16;4954758;28;20046;-79
2022/05/09 11:26:47;;;;;;;18.27;3.58;;;;;;;19.26;50.32;101502.88;4980147;28;20027;-78
2022/05/09 11:29:24;;;;;;;6.50;2.33;;;;;;;18.96;50.35;101506.88;4975723;28;20033;-79
2022/05/09 11:31:58;;;;;;;7.63;2.75;;;;;;;19.06;50.31;101506.81;4974558;28;20027;-79
2022/05/09 11:34:47;;;;;;;6.95;2.95;;;;;;;19.24;49.62;101496.72;4975599;28;20086;-80
2022/05/09 11:37:33;;;;;;;26.38;3.58;;;;;;;18.91;50.26;101502.94;4979110;28;20425;-80
2022/05/09 11:40:27;;;;;;;12.90;2.95;;;;;;;19.13;50.15;101499.72;4978118;28;20035;-80
2022/05/09 11:43:29;;;;;;;8.80;2.40;;;;;;;19.30;50.83;101493.34;4975080;28;20117;-78